Archival Weather

Norman Y Mineta San Jose Intl

San Jose, California (KSJC)

Report from: Wednesday, February 21, 2024 8:45 AM PST
Current time: Sunday, June 16, 2024 11:40 PM PDT

Current weather – Weather history – Daily summaries
Weather forecast

Temperature9.4°C (48.9°F)
Wind chill8.1°C (46.5°F)
Dew point8.3°C (46.9°F)
Winds 5 kts (2.6 m/s, 5.8 mph) East-Southeast (120°)
Visibility10 mi. (16.1 km)
Clouds Few clouds 0 ft. (0 m)
Few clouds 400 ft. (122 m)
Few clouds 700 ft. (213 m)
Altimeter30.15 in.Hg (1021 mB)
Relative humidity93 %
Density altitude-777 ft. (-237 m)
Remarks Automated weather observing station with precipitation discriminator
Visibility north northeast east southeast
Flight conditions Visual Meteorological Conditions
Raw dataKSJC 211645Z 12005KT 10SM R30L/2600VP6000FT FEW000 FEW004 FEW007 09/08 A3015 RMK AO2 VIS N 2 1/2 NE 1 E 1/2 SE 1 FG FEW000 T00940083
An error has occurred. This application may no longer respond until reloaded. Reload 🗙